createdAt,value
2022-09-02T00:01:25.969Z,1.30
2022-09-02T00:03:59.259Z,1.48
2022-09-02T00:06:26.669Z,3.75
2022-09-02T00:08:55.435Z,2.13
2022-09-02T00:11:27.325Z,2.05
2022-09-02T00:13:55.958Z,3.83
2022-09-02T00:16:25.308Z,1.55
2022-09-02T00:18:53.311Z,1.10
2022-09-02T00:23:47.448Z,1.48
2022-09-02T00:26:14.603Z,1.42
2022-09-02T00:28:48.850Z,3.55
2022-09-02T00:31:22.382Z,2.50
2022-09-02T00:33:51.067Z,1.85
2022-09-02T00:36:17.845Z,3.33
2022-09-02T00:38:44.449Z,1.40
2022-09-02T00:41:14.048Z,2.40
2022-09-02T00:44:11.721Z,1.40
2022-09-02T00:46:41.442Z,2.25
2022-09-02T00:49:25.515Z,1.40
2022-09-02T00:52:17.198Z,2.47
2022-09-02T00:55:09.970Z,4.47
2022-09-02T00:57:43.985Z,2.58
2022-09-02T01:00:17.954Z,1.65
2022-09-02T01:02:49.653Z,1.55
2022-09-02T01:09:16.820Z,3.45
2022-09-02T01:12:33.251Z,1.83
2022-09-02T01:15:00.417Z,3.35
2022-09-02T01:17:27.395Z,1.52
2022-09-02T01:19:59.816Z,1.55
2022-09-02T01:22:29.925Z,5.13
2022-09-02T01:24:58.781Z,2.35
2022-09-02T01:27:26.018Z,2.53
2022-09-02T01:29:55.372Z,1.95
2022-09-02T01:32:24.127Z,1.63
2022-09-02T01:34:50.920Z,4.28
2022-09-02T01:37:18.458Z,2.88
2022-09-02T01:39:45.831Z,1.50
2022-09-02T01:42:13.118Z,2.88
2022-09-02T01:44:44.288Z,2.13
2022-09-02T01:47:17.498Z,17.92
2022-09-02T01:49:43.981Z,25.45
2022-09-02T01:52:11.723Z,28.42
2022-09-02T01:54:38.603Z,25.63
2022-09-02T01:57:05.175Z,23.77
2022-09-02T01:59:31.992Z,21.10
2022-09-02T02:01:58.648Z,15.45
2022-09-02T02:04:25.365Z,11.13
2022-09-02T02:06:53.531Z,9.55
2022-09-02T02:09:30.943Z,8.75
2022-09-02T02:11:57.430Z,10.05
2022-09-02T02:14:24.057Z,6.03
2022-09-02T02:16:51.290Z,8.13
2022-09-02T02:19:20.513Z,5.05
2022-09-02T02:21:47.121Z,5.13
2022-09-02T02:24:14.299Z,9.10
2022-09-02T02:26:44.012Z,7.28
2022-09-02T02:29:14.058Z,4.50
2022-09-02T02:31:43.430Z,4.25
2022-09-02T02:34:11.201Z,6.20
2022-09-02T02:36:40.240Z,3.53
2022-09-02T02:39:11.988Z,3.60
2022-09-02T02:41:44.889Z,3.35
2022-09-02T02:44:11.638Z,2.75
2022-09-02T02:46:38.238Z,1.75
2022-09-02T02:49:05.985Z,2.42
2022-09-02T02:51:36.698Z,2.70
2022-09-02T02:54:03.933Z,2.38
2022-09-02T02:56:31.096Z,3.58
2022-09-02T02:59:01.481Z,1.65
2022-09-02T03:01:30.831Z,3.72
2022-09-02T03:03:57.774Z,1.33
2022-09-02T03:06:26.566Z,0.57
2022-09-02T03:08:53.552Z,1.85
2022-09-02T03:11:22.579Z,3.22
2022-09-02T03:13:52.566Z,3.60
2022-09-02T03:16:20.032Z,2.38
2022-09-02T03:18:48.222Z,1.02
2022-09-02T03:21:16.160Z,1.27
2022-09-02T03:23:43.830Z,4.53
2022-09-02T03:26:19.096Z,2.25
2022-09-02T03:28:47.567Z,1.27
2022-09-02T03:31:18.394Z,1.15
2022-09-02T03:33:45.739Z,1.25
2022-09-02T03:36:27.643Z,3.63
2022-09-02T03:38:55.203Z,2.50
2022-09-02T03:41:21.943Z,1.38
2022-09-02T03:43:48.752Z,3.25
2022-09-02T03:46:16.934Z,1.05
2022-09-02T03:48:46.485Z,2.00
2022-09-02T03:51:13.236Z,1.23
2022-09-02T03:53:41.848Z,2.47
2022-09-02T03:56:13.105Z,2.40
2022-09-02T03:58:43.133Z,1.27
2022-09-02T04:01:17.214Z,4.95
2022-09-02T04:06:12.807Z,3.05
2022-09-02T04:08:41.531Z,1.05
2022-09-02T04:11:14.725Z,2.05
2022-09-02T04:13:41.246Z,2.55
2022-09-02T04:16:17.347Z,2.03
2022-09-02T04:18:43.896Z,3.97
2022-09-02T04:21:13.756Z,1.33
2022-09-02T04:23:43.626Z,1.25
2022-09-02T04:26:13.524Z,4.03
2022-09-02T04:28:43.483Z,2.25
2022-09-02T04:31:13.239Z,1.25
2022-09-02T04:33:41.258Z,2.60
2022-09-02T04:38:42.249Z,1.40
2022-09-02T04:41:11.167Z,1.73
2022-09-02T04:43:38.185Z,1.00
2022-09-02T04:46:07.233Z,2.15
2022-09-02T04:48:36.797Z,2.13
2022-09-02T04:51:06.195Z,3.63
2022-09-02T04:53:33.406Z,1.83
2022-09-02T04:56:08.174Z,3.28
2022-09-02T04:58:35.238Z,2.03
2022-09-02T05:01:10.784Z,3.83
2022-09-02T05:03:38.042Z,1.98
2022-09-02T05:06:10.947Z,2.03
2022-09-02T05:08:37.577Z,5.75
2022-09-02T05:11:14.246Z,0.90
2022-09-02T05:13:44.240Z,3.03
2022-09-02T05:16:19.098Z,1.20
2022-09-02T05:18:45.695Z,2.80
2022-09-02T05:21:12.360Z,3.83
2022-09-02T05:23:41.458Z,1.25
2022-09-02T05:26:13.288Z,1.10
2022-09-02T05:28:43.901Z,1.83
2022-09-02T05:31:14.491Z,3.22
2022-09-02T05:33:44.608Z,0.98
2022-09-02T05:36:20.391Z,3.03
2022-09-02T05:38:47.811Z,1.10
2022-09-02T05:41:17.894Z,1.08
2022-09-02T05:43:45.771Z,3.08
2022-09-02T05:46:17.521Z,1.60
2022-09-02T05:49:04.495Z,2.63
2022-09-02T05:51:32.031Z,1.30
2022-09-02T05:54:00.542Z,1.60
2022-09-02T05:56:27.903Z,2.30
2022-09-02T05:58:58.960Z,1.55
2022-09-02T06:01:33.406Z,0.82
2022-09-02T06:04:02.221Z,1.05
2022-09-02T06:06:30.324Z,1.15
2022-09-02T06:08:56.933Z,1.58
2022-09-02T06:11:24.686Z,2.90
2022-09-02T06:13:51.700Z,1.08
2022-09-02T06:16:20.549Z,1.10
2022-09-02T06:18:47.916Z,2.70
2022-09-02T06:21:15.143Z,4.55
2022-09-02T06:23:42.618Z,4.20
2022-09-02T06:26:11.102Z,1.90
2022-09-02T06:28:38.721Z,2.72
2022-09-02T06:31:15.252Z,5.20
2022-09-02T06:33:46.433Z,1.63
2022-09-02T06:36:17.025Z,2.35
2022-09-02T06:38:46.206Z,2.38
2022-09-02T06:41:15.600Z,2.58
2022-09-02T06:43:43.091Z,5.45
2022-09-02T06:46:16.440Z,5.43
2022-09-02T06:48:43.067Z,0.95
2022-09-02T06:51:26.072Z,2.22
2022-09-02T06:53:52.966Z,1.75
2022-09-02T06:56:20.116Z,3.90
2022-09-02T06:58:46.655Z,1.10
2022-09-02T07:01:25.194Z,2.95
2022-09-02T07:04:11.435Z,3.55
2022-09-02T07:06:41.786Z,1.00
2022-09-02T07:09:10.856Z,1.42
2022-09-02T07:11:41.384Z,2.63
2022-09-02T07:14:07.996Z,2.22
2022-09-02T07:16:37.913Z,2.95
2022-09-02T07:19:08.584Z,2.13
2022-09-02T07:21:41.490Z,10.75
2022-09-02T07:24:10.171Z,3.95
2022-09-02T07:26:37.343Z,2.60
2022-09-02T07:29:07.027Z,1.77
2022-09-02T07:31:33.477Z,1.65
2022-09-02T07:33:59.989Z,2.63
2022-09-02T07:36:26.868Z,2.47
2022-09-02T07:38:58.245Z,4.45
2022-09-02T07:41:25.501Z,1.02
2022-09-02T07:43:53.627Z,6.10
2022-09-02T07:46:21.103Z,2.15
2022-09-02T07:48:50.148Z,3.97
2022-09-02T07:51:18.873Z,6.32
2022-09-02T07:53:45.304Z,1.67
2022-09-02T07:56:13.704Z,4.45
2022-09-02T07:58:43.097Z,2.95
2022-09-02T08:01:10.043Z,7.05
2022-09-02T08:03:39.106Z,3.65
2022-09-02T08:06:08.609Z,6.68
2022-09-02T08:08:35.174Z,3.08
2022-09-02T08:13:28.687Z,2.35
2022-09-02T08:15:55.305Z,2.55
2022-09-02T08:18:22.643Z,1.52
2022-09-02T08:20:49.466Z,2.28
2022-09-02T08:23:35.998Z,1.27
2022-09-02T08:26:03.186Z,2.53
2022-09-02T08:28:32.762Z,2.20
2022-09-02T08:30:59.401Z,2.50
2022-09-02T08:33:26.119Z,2.60
2022-09-02T08:35:52.692Z,3.90
2022-09-02T08:38:19.325Z,1.60
2022-09-02T08:40:46.109Z,2.15
2022-09-02T08:43:30.425Z,4.15
2022-09-02T08:46:04.316Z,2.50
2022-09-02T08:51:21.746Z,1.63
2022-09-02T08:54:02.028Z,3.25
2022-09-02T08:56:29.088Z,1.50
2022-09-02T08:59:03.656Z,1.70
2022-09-02T09:01:43.039Z,2.03
2022-09-02T09:04:35.480Z,4.93
2022-09-02T09:07:27.359Z,4.43
2022-09-02T09:10:25.494Z,1.23
2022-09-02T09:13:12.309Z,5.55
2022-09-02T09:15:47.753Z,2.78
2022-09-02T09:18:19.356Z,4.25
2022-09-02T09:20:46.689Z,3.97
2022-09-02T09:23:40.455Z,2.15
2022-09-02T09:26:12.599Z,6.75
2022-09-02T09:28:48.025Z,1.63
2022-09-02T09:31:18.716Z,4.60
2022-09-02T09:34:03.269Z,3.42
2022-09-02T09:36:42.258Z,1.20
2022-09-02T09:39:23.048Z,4.60
2022-09-02T09:41:51.481Z,5.28
2022-09-02T09:44:50.643Z,4.57
2022-09-02T09:47:20.222Z,3.83
2022-09-02T09:49:52.388Z,2.38
2022-09-02T09:52:24.064Z,6.47
2022-09-02T09:55:13.141Z,7.60
2022-09-02T09:57:45.844Z,3.00
2022-09-02T10:00:25.795Z,3.20
2022-09-02T10:02:56.972Z,2.15
2022-09-02T10:05:35.659Z,2.70
2022-09-02T10:08:25.825Z,2.50
2022-09-02T10:11:23.581Z,2.35
2022-09-02T10:13:50.483Z,6.85
2022-09-02T10:16:31.475Z,3.08
2022-09-02T10:19:36.152Z,5.78
2022-09-02T10:22:40.031Z,5.43
2022-09-02T10:25:35.751Z,1.65
2022-09-02T10:28:37.080Z,4.95
2022-09-02T10:31:17.946Z,1.55
2022-09-02T10:33:47.385Z,3.13
2022-09-02T10:36:28.633Z,1.83
2022-09-02T10:39:07.044Z,3.33
2022-09-02T10:41:48.815Z,3.83
2022-09-02T10:44:31.492Z,8.57
2022-09-02T10:47:30.064Z,3.22
2022-09-02T10:50:22.080Z,2.10
2022-09-02T10:52:58.890Z,5.43
2022-09-02T10:55:52.535Z,4.63
2022-09-02T10:58:24.685Z,8.13
2022-09-02T11:00:55.709Z,3.47
2022-09-02T11:03:43.008Z,6.82
2022-09-02T11:06:15.101Z,4.55
2022-09-02T11:08:46.176Z,3.08
2022-09-02T11:11:21.522Z,5.88
2022-09-02T11:14:11.271Z,3.38
2022-09-02T11:16:51.692Z,4.47
2022-09-02T11:19:31.475Z,6.40
2022-09-02T11:25:08.274Z,4.72
2022-09-02T11:27:44.856Z,4.03
2022-09-02T11:30:18.382Z,3.75
2022-09-02T11:33:14.706Z,3.15
2022-09-02T11:35:44.991Z,3.38
2022-09-02T11:38:42.590Z,4.00
2022-09-02T11:41:35.555Z,2.78
2022-09-02T11:44:26.984Z,5.40
2022-09-02T11:47:15.771Z,2.40
2022-09-02T11:49:55.056Z,2.63
2022-09-02T11:52:51.062Z,4.75
2022-09-02T11:55:24.371Z,4.97
2022-09-02T11:58:01.594Z,3.13
2022-09-02T12:00:32.868Z,3.13
2022-09-02T12:03:12.191Z,4.63
2022-09-02T12:05:51.565Z,3.58
2022-09-02T12:08:27.326Z,5.45
2022-09-02T12:10:53.787Z,2.80
2022-09-02T12:13:43.372Z,2.67
2022-09-02T12:16:13.088Z,2.95
2022-09-02T12:18:54.330Z,1.90
2022-09-02T12:21:25.498Z,3.63
2022-09-02T12:23:53.590Z,3.97
2022-09-02T12:26:22.367Z,7.57
2022-09-02T12:28:50.518Z,2.72
2022-09-02T12:31:42.915Z,6.60
2022-09-02T12:34:22.232Z,6.03
2022-09-02T12:37:05.303Z,3.42
2022-09-02T12:39:31.970Z,4.30
2022-09-02T12:42:07.472Z,4.55
2022-09-02T12:44:48.303Z,3.10
2022-09-02T12:47:46.440Z,5.68
2022-09-02T12:50:34.523Z,3.35
2022-09-02T12:53:12.366Z,3.35
2022-09-02T12:55:43.377Z,2.47
2022-09-02T12:58:14.528Z,2.67
2022-09-02T13:00:47.122Z,3.60
2022-09-02T13:03:30.894Z,6.38
2022-09-02T13:06:08.015Z,2.47
2022-09-02T13:09:03.552Z,3.92
2022-09-02T13:24:20.700Z,2.92
2022-09-02T13:27:46.415Z,2.17
2022-09-02T13:30:51.648Z,3.63
2022-09-02T13:33:42.483Z,4.00
2022-09-02T13:36:35.032Z,1.40
2022-09-02T13:39:28.450Z,3.70
2022-09-02T13:42:22.838Z,4.53
2022-09-02T13:45:19.467Z,3.45
2022-09-02T13:48:14.968Z,1.83
2022-09-02T13:51:12.953Z,2.72
2022-09-02T13:54:22.232Z,1.65
2022-09-02T13:57:11.566Z,1.90
2022-09-02T14:02:58.390Z,2.97
2022-09-02T14:05:48.013Z,1.67
2022-09-02T14:08:35.744Z,3.60
2022-09-02T14:11:23.083Z,2.58
2022-09-02T14:14:15.359Z,4.97
2022-09-02T14:17:23.105Z,2.50
2022-09-02T14:20:15.882Z,1.60
2022-09-02T14:23:02.887Z,2.78
2022-09-02T14:25:57.444Z,3.33
2022-09-02T14:28:51.526Z,1.80
2022-09-02T14:31:38.436Z,3.35
2022-09-02T14:34:44.947Z,3.28
2022-09-02T14:37:31.706Z,3.17
2022-09-02T14:40:32.525Z,5.38
2022-09-02T14:43:19.643Z,1.48
2022-09-02T14:46:07.353Z,2.28
2022-09-02T14:49:32.870Z,2.97
2022-09-02T14:52:30.855Z,2.78
2022-09-02T14:55:42.197Z,1.80
2022-09-02T14:58:30.587Z,1.88
2022-09-02T15:01:17.377Z,2.25
2022-09-02T15:04:04.817Z,3.30
2022-09-02T15:06:52.093Z,1.55
2022-09-02T15:09:38.979Z,3.50
2022-09-02T15:12:30.163Z,2.53
2022-09-02T15:15:21.033Z,4.53
2022-09-02T15:18:09.129Z,4.95
2022-09-02T15:20:56.336Z,1.45
2022-09-02T15:23:45.706Z,2.85
2022-09-02T15:26:34.688Z,1.85
2022-09-02T15:29:26.358Z,2.20
2022-09-02T15:32:15.821Z,3.17
2022-09-02T15:35:03.141Z,2.50
2022-09-02T15:37:50.492Z,3.30
2022-09-02T15:40:37.343Z,1.83
2022-09-02T15:43:24.268Z,3.67
2022-09-02T15:46:27.303Z,4.28
2022-09-02T15:48:57.864Z,1.80
2022-09-02T15:51:27.391Z,2.08
2022-09-02T15:53:59.373Z,1.58
2022-09-02T15:56:28.717Z,3.30
2022-09-02T15:59:00.580Z,3.47
2022-09-02T16:01:35.321Z,3.15
2022-09-02T16:04:02.388Z,2.95
2022-09-02T16:06:29.818Z,1.92
2022-09-02T16:11:23.443Z,6.18
2022-09-02T16:13:50.860Z,3.97
2022-09-02T16:18:45.238Z,6.22
2022-09-02T16:21:12.770Z,4.70
2022-09-02T16:23:39.646Z,2.38
2022-09-02T16:26:24.909Z,2.15
2022-09-02T16:28:54.452Z,2.78
2022-09-02T16:31:22.262Z,3.88
2022-09-02T16:33:53.956Z,2.50
2022-09-02T16:36:21.260Z,2.15
2022-09-02T16:38:47.805Z,2.70
2022-09-02T16:41:28.552Z,3.80
2022-09-02T16:43:57.250Z,4.50
2022-09-02T16:46:25.163Z,2.80
2022-09-02T16:48:51.873Z,2.78
2022-09-02T16:51:19.004Z,3.22
2022-09-02T16:53:46.403Z,6.80
2022-09-02T16:56:14.575Z,2.85
2022-09-02T16:58:41.557Z,3.50
2022-09-02T17:01:12.190Z,4.75
2022-09-02T17:03:40.166Z,1.88
2022-09-02T17:06:08.408Z,1.85
2022-09-02T17:08:35.145Z,7.03
2022-09-02T17:11:23.842Z,2.72
2022-09-02T17:14:06.882Z,1.92
2022-09-02T17:16:41.595Z,3.60
2022-09-02T17:19:10.369Z,3.47
2022-09-02T17:21:49.851Z,2.00
2022-09-02T17:24:16.719Z,3.10
2022-09-02T17:26:46.691Z,3.67
2022-09-02T17:29:47.023Z,3.70
2022-09-02T17:34:33.794Z,6.03
2022-09-02T17:37:00.432Z,4.82
2022-09-02T17:39:27.472Z,3.22
2022-09-02T17:42:00.052Z,3.33
2022-09-02T17:44:34.992Z,4.15
2022-09-02T17:47:06.483Z,5.10
2022-09-02T17:49:35.536Z,5.05
2022-09-02T17:52:07.316Z,5.60
2022-09-02T17:54:35.870Z,5.22
2022-09-02T17:57:25.502Z,8.70
2022-09-02T18:00:03.906Z,2.88
2022-09-02T18:02:38.735Z,8.35
2022-09-02T18:05:32.758Z,5.38
2022-09-02T18:08:15.464Z,2.28
2022-09-02T18:10:56.646Z,2.42
2022-09-02T18:13:44.428Z,1.80
2022-09-02T18:16:39.057Z,2.45
2022-09-02T18:19:29.690Z,1.10
2022-09-02T18:22:22.913Z,1.30
2022-09-02T18:25:03.808Z,2.63
2022-09-02T18:28:03.083Z,2.42
2022-09-02T18:30:40.718Z,4.43
2022-09-02T18:33:16.256Z,10.50
2022-09-02T18:36:04.225Z,2.75
2022-09-02T18:39:02.061Z,2.30
2022-09-02T18:41:54.888Z,3.80
2022-09-02T18:44:59.740Z,2.25
2022-09-02T18:47:34.876Z,5.60
2022-09-02T18:50:04.818Z,3.67
2022-09-02T18:52:33.429Z,4.47
2022-09-02T18:54:59.834Z,3.45
2022-09-02T18:57:36.935Z,2.88
2022-09-02T19:00:13.763Z,2.92
2022-09-02T19:02:51.630Z,5.35
2022-09-02T19:05:23.325Z,2.92
2022-09-02T19:08:34.613Z,3.33
2022-09-02T19:11:12.726Z,3.25
2022-09-02T19:13:57.077Z,1.80
2022-09-02T19:16:27.300Z,2.92
2022-09-02T19:18:54.128Z,4.15
2022-09-02T19:21:33.693Z,2.63
2022-09-02T19:24:05.885Z,3.75
2022-09-02T19:26:33.136Z,6.13
2022-09-02T19:29:03.868Z,1.15
2022-09-02T19:31:31.701Z,2.67
2022-09-02T19:34:02.129Z,3.35
2022-09-02T19:36:31.609Z,1.10
2022-09-02T19:38:59.135Z,3.88
2022-09-02T19:41:28.010Z,2.75
2022-09-02T19:43:55.100Z,2.72
2022-09-02T19:47:03.992Z,3.67
2022-09-02T19:49:09.421Z,2.17
2022-09-02T19:51:36.288Z,2.00
2022-09-02T19:54:03.492Z,9.32
2022-09-02T19:56:30.566Z,3.30
2022-09-02T19:58:57.087Z,2.15
2022-09-02T20:01:23.700Z,2.83
2022-09-02T20:03:50.198Z,2.90
2022-09-02T20:06:16.871Z,4.22
2022-09-02T20:08:43.409Z,6.95
2022-09-02T20:11:10.082Z,2.97
2022-09-02T20:13:41.003Z,2.95
2022-09-02T20:16:20.461Z,3.28
2022-09-02T20:18:51.833Z,5.00
2022-09-02T20:21:30.634Z,2.78
2022-09-02T20:24:07.198Z,3.47
2022-09-02T20:27:05.275Z,4.35
2022-09-02T20:30:00.509Z,5.75
2022-09-02T20:32:54.997Z,3.90
2022-09-02T20:35:33.912Z,4.82
2022-09-02T20:38:14.820Z,4.15
2022-09-02T20:41:08.448Z,5.03
2022-09-02T20:43:51.129Z,2.47
2022-09-02T20:46:36.510Z,1.33
2022-09-02T20:49:21.944Z,3.67
2022-09-02T20:51:56.361Z,2.28
2022-09-02T20:54:38.544Z,3.17
2022-09-02T20:57:33.964Z,6.53
2022-09-02T21:00:19.771Z,2.85
2022-09-02T21:03:11.335Z,3.13
2022-09-02T21:05:44.108Z,2.75
2022-09-02T21:08:24.440Z,6.47
2022-09-02T21:11:00.581Z,2.35
2022-09-02T21:13:33.791Z,2.35
2022-09-02T21:16:08.377Z,4.93
2022-09-02T21:18:43.579Z,2.60
2022-09-02T21:21:25.128Z,6.20
2022-09-02T21:24:03.131Z,2.50
2022-09-02T21:26:53.575Z,4.53
2022-09-02T21:29:40.887Z,2.20
2022-09-02T21:32:16.210Z,1.88
2022-09-02T21:34:52.491Z,3.60
2022-09-02T21:37:20.915Z,5.10
2022-09-02T21:39:58.252Z,2.10
2022-09-02T21:43:01.013Z,3.03
2022-09-02T21:46:05.657Z,2.83
2022-09-02T21:48:41.073Z,2.75
2022-09-02T21:51:33.932Z,2.95
2022-09-02T21:54:06.770Z,4.95
2022-09-02T21:56:57.435Z,2.67
2022-09-02T21:59:39.439Z,4.30
2022-09-02T22:02:16.460Z,1.85
2022-09-02T22:04:42.952Z,2.25
2022-09-02T22:07:20.336Z,2.85
2022-09-02T22:09:50.501Z,2.35
2022-09-02T22:12:17.867Z,1.60
2022-09-02T22:15:07.662Z,1.98
2022-09-02T22:17:56.117Z,4.60
2022-09-02T22:20:34.162Z,1.85
2022-09-02T22:23:06.790Z,4.40
2022-09-02T22:25:36.025Z,3.75
2022-09-02T22:28:12.330Z,1.98
2022-09-02T22:30:43.946Z,3.72
2022-09-02T22:33:14.795Z,5.20
2022-09-02T22:35:53.482Z,3.38
2022-09-02T22:38:30.309Z,2.20
2022-09-02T22:41:08.768Z,3.10
2022-09-02T22:43:43.832Z,2.63
2022-09-02T22:46:35.614Z,2.25
2022-09-02T22:49:28.008Z,3.63
2022-09-02T22:52:26.799Z,3.65
2022-09-02T22:54:53.411Z,2.75
2022-09-02T22:57:32.020Z,4.10
2022-09-02T23:00:05.934Z,1.70
2022-09-02T23:03:00.705Z,1.58
2022-09-02T23:05:53.057Z,2.35
2022-09-02T23:08:22.924Z,7.22
2022-09-02T23:11:02.865Z,1.35
2022-09-02T23:14:03.329Z,2.50
2022-09-02T23:16:55.918Z,3.53
2022-09-02T23:19:56.223Z,1.95
2022-09-02T23:22:34.074Z,2.63
2022-09-02T23:25:26.124Z,2.28
2022-09-02T23:28:12.475Z,1.83
2022-09-02T23:30:46.081Z,2.17
2022-09-02T23:33:20.549Z,2.97
2022-09-02T23:36:02.478Z,2.63
2022-09-02T23:39:03.004Z,2.63
2022-09-02T23:41:29.576Z,1.70
2022-09-02T23:43:56.402Z,3.75
2022-09-02T23:46:53.767Z,4.43
2022-09-02T23:49:46.470Z,2.90
2022-09-02T23:52:47.541Z,3.70
2022-09-02T23:55:23.985Z,1.42
2022-09-02T23:58:12.325Z,1.85
